Date,TemperatureHighF,TemperatureAvgF,TemperatureLowF,DewpointHighF,DewpointAvgF,DewpointLowF,HumidityHigh,HumidityAvg,HumidityLow,PressureMaxIn,PressureMinIn,WindSpeedMaxMPH,WindSpeedAvgMPH,GustSpeedMaxMPH,PrecipitationSumIn
2013-3-1,57.0,53.9,52.0,-99.9,-99.9,-99.9,0,0,100,0.00,40.00,25,16,0,0.00
2013-3-2,56.0,51.3,43.0,-99.9,-99.9,-99.9,0,0,100,0.00,40.00,24,14,0,0.00
2013-3-3,48.0,42.5,36.0,-99.9,-99.9,-99.9,0,0,100,0.00,40.00,24,7,0,0.00
2013-3-4,53.0,41.8,34.0,-99.9,-99.9,-99.9,0,0,100,0.00,40.00,14,7,0,0.00
2013-3-5,50.0,44.1,38.0,-99.9,-99.9,-99.9,0,0,100,0.00,40.00,12,6,0,0.00
2013-3-6,45.0,43.5,42.0,-99.9,-99.9,-99.9,0,0,100,0.00,40.00,13,6,0,0.00
2013-3-7,52.0,45.6,41.0,-99.9,-99.9,-99.9,0,0,100,0.00,40.00,15,6,0,0.00
2013-3-8,51.0,45.0,38.0,-99.9,-99.9,-99.9,0,0,100,0.00,40.00,12,5,0,0.00
2013-3-9,52.0,42.0,35.0,-99.9,-99.9,-99.9,0,0,100,0.00,40.00,9,4,0,0.00
2013-3-10,47.0,44.0,38.0,-99.9,-99.9,-99.9,0,0,100,0.00,40.00,13,4,0,0.00
2013-3-11,51.0,46.9,44.0,-99.9,-99.9,-99.9,0,0,100,0.00,40.00,13,4,0,0.00
2013-3-12,54.0,52.2,48.0,-99.9,-99.9,-99.9,0,0,100,0.00,40.00,27,17,0,0.00
2013-3-13,54.0,52.3,51.0,-99.9,-99.9,-99.9,0,0,100,0.00,40.00,30,19,0,0.00
2013-3-14,55.0,52.0,49.0,-99.9,-99.9,-99.9,0,0,100,0.00,40.00,31,13,0,0.00
2013-3-15,58.0,53.0,50.0,-99.9,-99.9,-99.9,0,0,100,0.00,40.00,32,15,0,0.00
2013-3-16,51.0,48.4,41.0,-99.9,-99.9,-99.9,0,0,100,0.00,40.00,35,15,0,0.00
2013-3-17,49.0,41.7,35.0,-99.9,-99.9,-99.9,0,0,100,0.00,40.00,25,8,0,0.00
2013-3-18,50.0,45.1,40.0,-99.9,-99.9,-99.9,0,0,100,0.00,40.00,27,14,0,0.00
2013-3-19,51.0,43.5,38.0,-99.9,-99.9,-99.9,0,0,100,0.00,40.00,15,6,0,0.00
2013-3-20,52.0,47.8,42.0,-99.9,-99.9,-99.9,0,0,100,0.00,40.00,41,21,0,0.00
2013-3-21,48.0,41.4,38.0,-99.9,-99.9,-99.9,0,0,100,0.00,40.00,21,11,0,0.00
2013-3-22,46.0,39.7,36.0,-99.9,-99.9,-99.9,0,0,100,0.00,40.00,12,5,0,0.00
2013-3-23,49.0,40.4,35.0,-99.9,-99.9,-99.9,0,0,100,0.00,40.00,20,6,0,0.00
2013-3-24,54.0,42.5,33.0,-99.9,-99.9,-99.9,0,0,100,0.00,40.00,7,4,0,0.00
2013-3-25,60.0,48.5,37.0,-99.9,-99.9,-99.9,0,0,100,0.00,40.00,16,5,0,0.00
2013-3-26,58.0,50.5,47.0,-99.9,-99.9,-99.9,0,0,100,0.00,40.00,9,4,0,0.00
2013-3-27,54.0,49.6,45.0,-99.9,-99.9,-99.9,0,0,100,0.00,40.00,7,2,0,0.00
2013-3-28,58.0,50.7,45.0,-99.9,-99.9,-99.9,0,0,100,0.00,40.00,12,4,0,0.00
2013-3-29,61.0,52.3,45.0,-99.9,-99.9,-99.9,0,0,100,0.00,40.00,16,5,0,0.00
2013-3-30,64.0,51.8,42.0,-99.9,-99.9,-99.9,0,0,100,0.00,40.00,14,7,0,0.00
2013-3-31,64.0,54.7,47.0,-99.9,-99.9,-99.9,0,0,100,0.00,40.00,16,5,0,0.00